sensor_id;sensor_type;location;lat;lon;timestamp;temperature;humidity
46730;DHT22;32476;50.002;11.854;2023-02-01T00:00:52;1.10;99.90
46730;DHT22;32476;50.002;11.854;2023-02-01T00:03:18;1.10;99.90
46730;DHT22;32476;50.002;11.854;2023-02-01T00:05:58;1.10;99.90
46730;DHT22;32476;50.002;11.854;2023-02-01T00:08:24;1.10;99.90
46730;DHT22;32476;50.002;11.854;2023-02-01T00:11:07;1.10;99.90
46730;DHT22;32476;50.002;11.854;2023-02-01T00:13:35;1.10;99.90
46730;DHT22;32476;50.002;11.854;2023-02-01T00:16:12;1.10;99.90
46730;DHT22;32476;50.002;11.854;2023-02-01T00:18:48;1.10;99.90
46730;DHT22;32476;50.002;11.854;2023-02-01T00:21:19;1.10;99.90
46730;DHT22;32476;50.002;11.854;2023-02-01T00:23:46;1.10;99.90
46730;DHT22;32476;50.002;11.854;2023-02-01T00:26:18;1.10;99.90
46730;DHT22;32476;50.002;11.854;2023-02-01T00:28:47;1.20;99.90
46730;DHT22;32476;50.002;11.854;2023-02-01T00:31:13;1.10;99.90
46730;DHT22;32476;50.002;11.854;2023-02-01T00:33:40;1.10;99.90
46730;DHT22;32476;50.002;11.854;2023-02-01T00:36:09;1.10;99.90
46730;DHT22;32476;50.002;11.854;2023-02-01T00:38:37;1.10;99.90
46730;DHT22;32476;50.002;11.854;2023-02-01T00:41:05;1.00;99.90
46730;DHT22;32476;50.002;11.854;2023-02-01T00:43:34;1.00;99.90
46730;DHT22;32476;50.002;11.854;2023-02-01T00:46:02;1.00;99.90
46730;DHT22;32476;50.002;11.854;2023-02-01T00:48:29;1.00;99.90
46730;DHT22;32476;50.002;11.854;2023-02-01T00:51:01;1.00;99.90
46730;DHT22;32476;50.002;11.854;2023-02-01T00:53:28;1.00;99.90
46730;DHT22;32476;50.002;11.854;2023-02-01T00:55:54;1.00;99.90
46730;DHT22;32476;50.002;11.854;2023-02-01T00:58:23;1.00;99.90
46730;DHT22;32476;50.002;11.854;2023-02-01T01:03:39;1.00;99.90
46730;DHT22;32476;50.002;11.854;2023-02-01T01:06:09;0.90;99.90
46730;DHT22;32476;50.002;11.854;2023-02-01T01:08:38;0.90;99.90
46730;DHT22;32476;50.002;11.854;2023-02-01T01:11:11;1.00;99.90
46730;DHT22;32476;50.002;11.854;2023-02-01T01:13:40;1.00;99.90
46730;DHT22;32476;50.002;11.854;2023-02-01T01:16:09;1.00;99.90
46730;DHT22;32476;50.002;11.854;2023-02-01T01:18:36;1.00;99.90
46730;DHT22;32476;50.002;11.854;2023-02-01T01:21:05;1.00;99.90
46730;DHT22;32476;50.002;11.854;2023-02-01T01:23:32;1.00;99.90
46730;DHT22;32476;50.002;11.854;2023-02-01T01:25:58;1.00;99.90
46730;DHT22;32476;50.002;11.854;2023-02-01T01:28:25;1.00;99.90
46730;DHT22;32476;50.002;11.854;2023-02-01T01:30:52;0.90;99.90
46730;DHT22;32476;50.002;11.854;2023-02-01T01:33:17;1.00;99.90
46730;DHT22;32476;50.002;11.854;2023-02-01T01:35:45;1.00;99.90
46730;DHT22;32476;50.002;11.854;2023-02-01T01:38:11;1.00;99.90
46730;DHT22;32476;50.002;11.854;2023-02-01T01:40:37;1.00;99.90
46730;DHT22;32476;50.002;11.854;2023-02-01T01:43:13;1.00;99.90
46730;DHT22;32476;50.002;11.854;2023-02-01T01:45:40;1.00;99.90
46730;DHT22;32476;50.002;11.854;2023-02-01T01:48:27;1.00;99.90
46730;DHT22;32476;50.002;11.854;2023-02-01T01:53:28;0.90;99.90
46730;DHT22;32476;50.002;11.854;2023-02-01T01:55:57;0.90;99.90
46730;DHT22;32476;50.002;11.854;2023-02-01T01:58:26;0.80;99.90
46730;DHT22;32476;50.002;11.854;2023-02-01T02:00:54;0.80;99.90
46730;DHT22;32476;50.002;11.854;2023-02-01T02:03:33;0.80;99.90
46730;DHT22;32476;50.002;11.854;2023-02-01T02:06:04;0.90;99.90
46730;DHT22;32476;50.002;11.854;2023-02-01T02:08:40;0.90;99.90
46730;DHT22;32476;50.002;11.854;2023-02-01T02:11:08;0.90;99.90
46730;DHT22;32476;50.002;11.854;2023-02-01T02:13:39;0.90;99.90
46730;DHT22;32476;50.002;11.854;2023-02-01T02:16:31;1.00;99.90
46730;DHT22;32476;50.002;11.854;2023-02-01T02:35:02;1.00;99.90
46730;DHT22;32476;50.002;11.854;2023-02-01T02:37:57;1.10;99.90
46730;DHT22;32476;50.002;11.854;2023-02-01T02:43:32;1.00;99.90
46730;DHT22;32476;50.002;11.854;2023-02-01T02:46:27;1.00;99.90
46730;DHT22;32476;50.002;11.854;2023-02-01T02:49:49;1.00;99.90
46730;DHT22;32476;50.002;11.854;2023-02-01T02:53:04;1.00;99.90
46730;DHT22;32476;50.002;11.854;2023-02-01T02:55:55;1.00;99.90
46730;DHT22;32476;50.002;11.854;2023-02-01T02:58:43;1.00;99.90
46730;DHT22;32476;50.002;11.854;2023-02-01T03:01:29;1.00;99.90
46730;DHT22;32476;50.002;11.854;2023-02-01T03:04:16;1.00;99.90
46730;DHT22;32476;50.002;11.854;2023-02-01T03:06:44;1.00;99.90
46730;DHT22;32476;50.002;11.854;2023-02-01T03:09:21;1.00;99.90
46730;DHT22;32476;50.002;11.854;2023-02-01T03:11:56;1.00;99.90
46730;DHT22;32476;50.002;11.854;2023-02-01T03:14:48;0.90;99.90
46730;DHT22;32476;50.002;11.854;2023-02-01T03:17:22;1.00;99.90
46730;DHT22;32476;50.002;11.854;2023-02-01T03:19:53;1.00;99.90
46730;DHT22;32476;50.002;11.854;2023-02-01T03:22:27;0.90;99.90
46730;DHT22;32476;50.002;11.854;2023-02-01T03:25:12;0.90;99.90
46730;DHT22;32476;50.002;11.854;2023-02-01T03:28:03;0.90;99.90
46730;DHT22;32476;50.002;11.854;2023-02-01T03:30:34;0.90;99.90
46730;DHT22;32476;50.002;11.854;2023-02-01T03:33:07;0.90;99.90
46730;DHT22;32476;50.002;11.854;2023-02-01T03:38:32;0.90;99.90
46730;DHT22;32476;50.002;11.854;2023-02-01T03:41:27;0.90;99.90
46730;DHT22;32476;50.002;11.854;2023-02-01T03:44:15;0.90;99.90
46730;DHT22;32476;50.002;11.854;2023-02-01T03:49:40;0.90;99.90
46730;DHT22;32476;50.002;11.854;2023-02-01T03:52:13;0.90;99.90
46730;DHT22;32476;50.002;11.854;2023-02-01T03:54:44;1.00;99.90
46730;DHT22;32476;50.002;11.854;2023-02-01T03:57:13;0.90;99.90
46730;DHT22;32476;50.002;11.854;2023-02-01T03:59:45;1.00;99.90
46730;DHT22;32476;50.002;11.854;2023-02-01T04:02:11;1.00;99.90
46730;DHT22;32476;50.002;11.854;2023-02-01T04:04:37;0.90;99.90
46730;DHT22;32476;50.002;11.854;2023-02-01T04:07:05;0.90;99.90
46730;DHT22;32476;50.002;11.854;2023-02-01T04:09:31;1.00;99.90
46730;DHT22;32476;50.002;11.854;2023-02-01T04:11:57;1.00;99.90
46730;DHT22;32476;50.002;11.854;2023-02-01T04:14:24;1.00;99.90
46730;DHT22;32476;50.002;11.854;2023-02-01T04:16:50;1.00;99.90
46730;DHT22;32476;50.002;11.854;2023-02-01T04:19:16;1.00;99.90
46730;DHT22;32476;50.002;11.854;2023-02-01T04:21:44;1.00;99.90
46730;DHT22;32476;50.002;11.854;2023-02-01T04:24:10;1.00;99.90
46730;DHT22;32476;50.002;11.854;2023-02-01T04:26:36;1.00;99.90
46730;DHT22;32476;50.002;11.854;2023-02-01T04:29:03;1.00;99.90
46730;DHT22;32476;50.002;11.854;2023-02-01T04:31:29;1.00;99.90
46730;DHT22;32476;50.002;11.854;2023-02-01T04:33:55;1.00;99.90
46730;DHT22;32476;50.002;11.854;2023-02-01T04:36:24;1.00;99.90
46730;DHT22;32476;50.002;11.854;2023-02-01T04:38:51;1.00;99.90
46730;DHT22;32476;50.002;11.854;2023-02-01T04:41:17;1.10;99.90
46730;DHT22;32476;50.002;11.854;2023-02-01T04:43:46;1.00;99.90
46730;DHT22;32476;50.002;11.854;2023-02-01T04:46:13;1.00;99.90
46730;DHT22;32476;50.002;11.854;2023-02-01T04:48:39;1.10;99.90
46730;DHT22;32476;50.002;11.854;2023-02-01T04:51:07;1.00;99.90
46730;DHT22;32476;50.002;11.854;2023-02-01T04:53:33;1.00;99.90
46730;DHT22;32476;50.002;11.854;2023-02-01T04:55:59;1.00;99.90
46730;DHT22;32476;50.002;11.854;2023-02-01T04:58:26;1.00;99.90
46730;DHT22;32476;50.002;11.854;2023-02-01T05:00:52;0.90;99.90
46730;DHT22;32476;50.002;11.854;2023-02-01T05:03:19;0.90;99.90
46730;DHT22;32476;50.002;11.854;2023-02-01T05:05:49;0.90;99.90
46730;DHT22;32476;50.002;11.854;2023-02-01T05:08:15;0.80;99.90
46730;DHT22;32476;50.002;11.854;2023-02-01T05:10:41;0.80;99.90
46730;DHT22;32476;50.002;11.854;2023-02-01T05:13:10;0.80;99.90
46730;DHT22;32476;50.002;11.854;2023-02-01T05:15:54;0.90;99.90
46730;DHT22;32476;50.002;11.854;2023-02-01T05:18:22;0.90;99.90
46730;DHT22;32476;50.002;11.854;2023-02-01T05:20:47;0.90;99.90
46730;DHT22;32476;50.002;11.854;2023-02-01T05:23:13;0.90;99.90
46730;DHT22;32476;50.002;11.854;2023-02-01T05:25:41;1.00;99.90
46730;DHT22;32476;50.002;11.854;2023-02-01T05:28:07;0.90;99.90
46730;DHT22;32476;50.002;11.854;2023-02-01T05:30:33;1.00;99.90
46730;DHT22;32476;50.002;11.854;2023-02-01T05:33:02;0.90;99.90
46730;DHT22;32476;50.002;11.854;2023-02-01T05:35:29;0.90;99.90
46730;DHT22;32476;50.002;11.854;2023-02-01T05:37:55;0.90;99.90
46730;DHT22;32476;50.002;11.854;2023-02-01T05:40:23;0.90;99.90
46730;DHT22;32476;50.002;11.854;2023-02-01T05:42:48;0.90;99.90
46730;DHT22;32476;50.002;11.854;2023-02-01T05:45:14;0.90;99.90
46730;DHT22;32476;50.002;11.854;2023-02-01T05:47:42;0.90;99.90
46730;DHT22;32476;50.002;11.854;2023-02-01T05:50:08;0.90;99.90
46730;DHT22;32476;50.002;11.854;2023-02-01T05:52:34;0.90;99.90
46730;DHT22;32476;50.002;11.854;2023-02-01T05:55:02;0.90;99.90
46730;DHT22;32476;50.002;11.854;2023-02-01T05:57:28;0.90;99.90
46730;DHT22;32476;50.002;11.854;2023-02-01T05:59:54;0.90;99.90
46730;DHT22;32476;50.002;11.854;2023-02-01T06:02:21;1.00;99.90
46730;DHT22;32476;50.002;11.854;2023-02-01T06:04:50;0.90;99.90
46730;DHT22;32476;50.002;11.854;2023-02-01T06:07:16;1.00;99.90
46730;DHT22;32476;50.002;11.854;2023-02-01T06:09:43;1.00;99.90
46730;DHT22;32476;50.002;11.854;2023-02-01T06:12:09;1.00;99.90
46730;DHT22;32476;50.002;11.854;2023-02-01T06:14:35;1.00;99.90
46730;DHT22;32476;50.002;11.854;2023-02-01T06:17:04;1.00;99.90
46730;DHT22;32476;50.002;11.854;2023-02-01T06:19:31;1.00;99.90
46730;DHT22;32476;50.002;11.854;2023-02-01T06:21:57;1.00;99.90
46730;DHT22;32476;50.002;11.854;2023-02-01T06:24:24;1.00;99.90
46730;DHT22;32476;50.002;11.854;2023-02-01T06:26:51;1.00;99.90
46730;DHT22;32476;50.002;11.854;2023-02-01T06:29:17;1.00;99.90
46730;DHT22;32476;50.002;11.854;2023-02-01T06:31:44;1.00;99.90
46730;DHT22;32476;50.002;11.854;2023-02-01T06:34:10;1.00;99.90
46730;DHT22;32476;50.002;11.854;2023-02-01T06:36:36;0.90;99.90
46730;DHT22;32476;50.002;11.854;2023-02-01T06:39:04;1.00;99.90
46730;DHT22;32476;50.002;11.854;2023-02-01T06:41:30;0.90;99.90
46730;DHT22;32476;50.002;11.854;2023-02-01T06:43:56;1.00;99.90
46730;DHT22;32476;50.002;11.854;2023-02-01T06:46:23;1.00;99.90
46730;DHT22;32476;50.002;11.854;2023-02-01T06:48:49;1.00;99.90
46730;DHT22;32476;50.002;11.854;2023-02-01T06:51:25;1.00;99.90
46730;DHT22;32476;50.002;11.854;2023-02-01T06:53:53;1.00;99.90
46730;DHT22;32476;50.002;11.854;2023-02-01T06:56:19;1.00;99.90
46730;DHT22;32476;50.002;11.854;2023-02-01T06:58:47;1.00;99.90
46730;DHT22;32476;50.002;11.854;2023-02-01T07:01:15;1.00;99.90
46730;DHT22;32476;50.002;11.854;2023-02-01T07:03:42;1.00;99.90
46730;DHT22;32476;50.002;11.854;2023-02-01T07:06:09;1.00;99.90
46730;DHT22;32476;50.002;11.854;2023-02-01T07:08:37;1.00;99.90
46730;DHT22;32476;50.002;11.854;2023-02-01T07:11:10;1.00;99.90
46730;DHT22;32476;50.002;11.854;2023-02-01T07:13:39;1.00;99.90
46730;DHT22;32476;50.002;11.854;2023-02-01T07:16:08;1.00;99.90
46730;DHT22;32476;50.002;11.854;2023-02-01T07:18:36;1.00;99.90
46730;DHT22;32476;50.002;11.854;2023-02-01T07:21:04;1.00;99.90
46730;DHT22;32476;50.002;11.854;2023-02-01T07:23:30;1.00;99.90
46730;DHT22;32476;50.002;11.854;2023-02-01T07:25:58;1.00;99.90
46730;DHT22;32476;50.002;11.854;2023-02-01T07:28:29;1.10;99.90
46730;DHT22;32476;50.002;11.854;2023-02-01T07:31:02;1.10;99.90
46730;DHT22;32476;50.002;11.854;2023-02-01T07:33:37;1.10;99.90
46730;DHT22;32476;50.002;11.854;2023-02-01T07:36:05;1.00;99.90
46730;DHT22;32476;50.002;11.854;2023-02-01T07:38:33;1.10;99.90
46730;DHT22;32476;50.002;11.854;2023-02-01T07:41:01;1.10;99.90
46730;DHT22;32476;50.002;11.854;2023-02-01T07:43:29;1.10;99.90
46730;DHT22;32476;50.002;11.854;2023-02-01T07:45:55;1.10;99.90
46730;DHT22;32476;50.002;11.854;2023-02-01T07:48:24;1.00;99.90
46730;DHT22;32476;50.002;11.854;2023-02-01T07:51:02;1.00;99.90
46730;DHT22;32476;50.002;11.854;2023-02-01T07:53:35;1.00;99.90
46730;DHT22;32476;50.002;11.854;2023-02-01T07:56:02;1.00;99.90
46730;DHT22;32476;50.002;11.854;2023-02-01T07:58:29;1.00;99.90
46730;DHT22;32476;50.002;11.854;2023-02-01T08:00:56;1.00;99.90
46730;DHT22;32476;50.002;11.854;2023-02-01T08:03:41;1.00;99.90
46730;DHT22;32476;50.002;11.854;2023-02-01T08:06:09;1.10;99.90
46730;DHT22;32476;50.002;11.854;2023-02-01T08:08:35;1.10;99.90
46730;DHT22;32476;50.002;11.854;2023-02-01T08:11:04;1.10;99.90
46730;DHT22;32476;50.002;11.854;2023-02-01T08:13:35;1.10;99.90
46730;DHT22;32476;50.002;11.854;2023-02-01T08:16:04;1.10;99.90
46730;DHT22;32476;50.002;11.854;2023-02-01T08:18:34;1.10;99.90
46730;DHT22;32476;50.002;11.854;2023-02-01T08:21:15;1.10;99.90
46730;DHT22;32476;50.002;11.854;2023-02-01T08:23:45;1.10;99.90
46730;DHT22;32476;50.002;11.854;2023-02-01T08:26:17;1.10;99.90
46730;DHT22;32476;50.002;11.854;2023-02-01T08:28:53;1.00;99.90
46730;DHT22;32476;50.002;11.854;2023-02-01T08:31:25;1.10;99.90
46730;DHT22;32476;50.002;11.854;2023-02-01T08:33:56;1.10;99.90
46730;DHT22;32476;50.002;11.854;2023-02-01T08:36:24;1.10;99.90
46730;DHT22;32476;50.002;11.854;2023-02-01T08:38:51;1.10;99.90
46730;DHT22;32476;50.002;11.854;2023-02-01T08:41:23;1.10;99.90
46730;DHT22;32476;50.002;11.854;2023-02-01T08:43:50;1.10;99.90
46730;DHT22;32476;50.002;11.854;2023-02-01T08:46:17;1.10;99.90
46730;DHT22;32476;50.002;11.854;2023-02-01T08:48:46;1.10;99.90
46730;DHT22;32476;50.002;11.854;2023-02-01T08:51:14;1.10;99.90
46730;DHT22;32476;50.002;11.854;2023-02-01T08:53:42;1.10;99.90
46730;DHT22;32476;50.002;11.854;2023-02-01T08:56:14;1.10;99.90
46730;DHT22;32476;50.002;11.854;2023-02-01T08:58:41;1.10;99.90
46730;DHT22;32476;50.002;11.854;2023-02-01T09:01:12;1.10;99.90
46730;DHT22;32476;50.002;11.854;2023-02-01T09:03:40;1.10;99.90
46730;DHT22;32476;50.002;11.854;2023-02-01T09:06:11;1.10;99.90
46730;DHT22;32476;50.002;11.854;2023-02-01T09:08:40;1.10;99.90
46730;DHT22;32476;50.002;11.854;2023-02-01T09:11:10;1.10;99.90
46730;DHT22;32476;50.002;11.854;2023-02-01T09:13:40;1.10;99.90
46730;DHT22;32476;50.002;11.854;2023-02-01T09:16:06;1.10;99.90
46730;DHT22;32476;50.002;11.854;2023-02-01T09:18:36;1.10;99.90
46730;DHT22;32476;50.002;11.854;2023-02-01T09:21:07;1.10;99.90
46730;DHT22;32476;50.002;11.854;2023-02-01T09:23:34;1.20;99.90
46730;DHT22;32476;50.002;11.854;2023-02-01T09:26:01;1.20;99.90
46730;DHT22;32476;50.002;11.854;2023-02-01T09:28:30;1.20;99.90
46730;DHT22;32476;50.002;11.854;2023-02-01T09:31:00;1.20;99.90
46730;DHT22;32476;50.002;11.854;2023-02-01T09:33:28;1.20;99.90
46730;DHT22;32476;50.002;11.854;2023-02-01T09:36:05;1.20;99.90
46730;DHT22;32476;50.002;11.854;2023-02-01T09:38:31;1.20;99.90
46730;DHT22;32476;50.002;11.854;2023-02-01T09:40:59;1.20;99.90
46730;DHT22;32476;50.002;11.854;2023-02-01T09:43:56;1.20;99.90
46730;DHT22;32476;50.002;11.854;2023-02-01T09:46:33;1.20;99.90
46730;DHT22;32476;50.002;11.854;2023-02-01T09:49:13;1.20;99.90
46730;DHT22;32476;50.002;11.854;2023-02-01T09:51:46;1.20;99.90
46730;DHT22;32476;50.002;11.854;2023-02-01T09:54:16;1.20;99.90
46730;DHT22;32476;50.002;11.854;2023-02-01T09:56:53;1.30;99.90
46730;DHT22;32476;50.002;11.854;2023-02-01T09:59:43;1.30;99.90
46730;DHT22;32476;50.002;11.854;2023-02-01T10:02:26;1.20;99.90
46730;DHT22;32476;50.002;11.854;2023-02-01T10:04:56;1.30;99.90
46730;DHT22;32476;50.002;11.854;2023-02-01T10:07:39;1.30;99.90
46730;DHT22;32476;50.002;11.854;2023-02-01T10:10:36;1.30;99.90
46730;DHT22;32476;50.002;11.854;2023-02-01T10:16:47;1.30;99.90
46730;DHT22;32476;50.002;11.854;2023-02-01T10:22:00;1.40;99.90
46730;DHT22;32476;50.002;11.854;2023-02-01T10:29:44;1.30;99.90
46730;DHT22;32476;50.002;11.854;2023-02-01T10:32:17;1.30;99.90
46730;DHT22;32476;50.002;11.854;2023-02-01T10:35:05;1.40;99.90
46730;DHT22;32476;50.002;11.854;2023-02-01T10:37:36;1.40;99.90
46730;DHT22;32476;50.002;11.854;2023-02-01T10:42:53;1.40;99.90
46730;DHT22;32476;50.002;11.854;2023-02-01T10:45:27;1.40;99.90
46730;DHT22;32476;50.002;11.854;2023-02-01T10:47:56;1.50;99.90
46730;DHT22;32476;50.002;11.854;2023-02-01T10:51:00;1.50;99.90
46730;DHT22;32476;50.002;11.854;2023-02-01T10:54:03;1.50;99.90
46730;DHT22;32476;50.002;11.854;2023-02-01T10:56:32;1.50;99.90
46730;DHT22;32476;50.002;11.854;2023-02-01T10:59:05;1.60;99.90
46730;DHT22;32476;50.002;11.854;2023-02-01T11:01:40;1.60;99.90
46730;DHT22;32476;50.002;11.854;2023-02-01T11:04:10;1.60;99.90
46730;DHT22;32476;50.002;11.854;2023-02-01T11:06:45;1.60;99.90
46730;DHT22;32476;50.002;11.854;2023-02-01T11:09:23;1.60;99.90
46730;DHT22;32476;50.002;11.854;2023-02-01T11:11:53;1.50;99.90
46730;DHT22;32476;50.002;11.854;2023-02-01T11:14:41;1.50;99.90
46730;DHT22;32476;50.002;11.854;2023-02-01T11:19:47;1.50;99.90
46730;DHT22;32476;50.002;11.854;2023-02-01T11:22:17;1.50;99.90
46730;DHT22;32476;50.002;11.854;2023-02-01T11:24:46;1.50;99.90
46730;DHT22;32476;50.002;11.854;2023-02-01T11:27:17;1.60;99.90
46730;DHT22;32476;50.002;11.854;2023-02-01T11:29:51;1.60;99.90
46730;DHT22;32476;50.002;11.854;2023-02-01T11:32:20;1.60;99.90
46730;DHT22;32476;50.002;11.854;2023-02-01T11:35:02;1.60;99.90
46730;DHT22;32476;50.002;11.854;2023-02-01T11:37:36;1.50;99.90
46730;DHT22;32476;50.002;11.854;2023-02-01T11:40:25;1.50;99.90
46730;DHT22;32476;50.002;11.854;2023-02-01T11:43:23;1.60;99.90
46730;DHT22;32476;50.002;11.854;2023-02-01T11:45:58;1.60;99.90
46730;DHT22;32476;50.002;11.854;2023-02-01T11:48:31;1.60;99.90
46730;DHT22;32476;50.002;11.854;2023-02-01T11:59:49;1.60;99.90
46730;DHT22;32476;50.002;11.854;2023-02-01T12:02:46;1.50;99.90
46730;DHT22;32476;50.002;11.854;2023-02-01T12:05:52;1.50;99.90
46730;DHT22;32476;50.002;11.854;2023-02-01T12:17:57;1.50;99.90
46730;DHT22;32476;50.002;11.854;2023-02-01T12:27:25;1.50;99.90
46730;DHT22;32476;50.002;11.854;2023-02-01T12:36:09;1.50;99.90
46730;DHT22;32476;50.002;11.854;2023-02-01T12:42:10;1.50;99.90
46730;DHT22;32476;50.002;11.854;2023-02-01T12:47:33;1.50;99.90
46730;DHT22;32476;50.002;11.854;2023-02-01T12:50:18;1.40;99.90
46730;DHT22;32476;50.002;11.854;2023-02-01T12:52:52;1.40;99.90
46730;DHT22;32476;50.002;11.854;2023-02-01T12:55:44;1.40;99.90
46730;DHT22;32476;50.002;11.854;2023-02-01T12:58:21;1.40;99.90
46730;DHT22;32476;50.002;11.854;2023-02-01T13:00:59;1.40;99.90
46730;DHT22;32476;50.002;11.854;2023-02-01T13:03:48;1.40;99.90
46730;DHT22;32476;50.002;11.854;2023-02-01T13:06:20;1.40;99.90
46730;DHT22;32476;50.002;11.854;2023-02-01T13:09:19;1.40;99.90
46730;DHT22;32476;50.002;11.854;2023-02-01T13:11:53;1.40;99.90
46730;DHT22;32476;50.002;11.854;2023-02-01T13:17:22;1.40;99.90
46730;DHT22;32476;50.002;11.854;2023-02-01T13:22:40;1.40;99.90
46730;DHT22;32476;50.002;11.854;2023-02-01T13:25:29;1.40;99.90
46730;DHT22;32476;50.002;11.854;2023-02-01T13:28:14;1.40;99.90
46730;DHT22;32476;50.002;11.854;2023-02-01T13:34:16;1.40;99.90
46730;DHT22;32476;50.002;11.854;2023-02-01T13:37:27;1.40;99.90
46730;DHT22;32476;50.002;11.854;2023-02-01T13:40:18;1.40;99.90
46730;DHT22;32476;50.002;11.854;2023-02-01T13:42:57;1.40;99.90
46730;DHT22;32476;50.002;11.854;2023-02-01T13:45:33;1.50;99.90
46730;DHT22;32476;50.002;11.854;2023-02-01T13:48:04;1.50;99.90
46730;DHT22;32476;50.002;11.854;2023-02-01T13:50:37;1.50;99.90
46730;DHT22;32476;50.002;11.854;2023-02-01T13:55:41;1.50;99.90
46730;DHT22;32476;50.002;11.854;2023-02-01T14:00:45;1.50;99.90
46730;DHT22;32476;50.002;11.854;2023-02-01T14:03:42;1.50;99.90
46730;DHT22;32476;50.002;11.854;2023-02-01T14:09:16;1.40;99.90
46730;DHT22;32476;50.002;11.854;2023-02-01T14:19:29;1.40;99.90
46730;DHT22;32476;50.002;11.854;2023-02-01T14:24:51;1.40;99.90
46730;DHT22;32476;50.002;11.854;2023-02-01T14:27:30;1.40;99.90
46730;DHT22;32476;50.002;11.854;2023-02-01T14:30:05;1.40;99.90
46730;DHT22;32476;50.002;11.854;2023-02-01T14:32:38;1.40;99.90
46730;DHT22;32476;50.002;11.854;2023-02-01T14:35:20;1.40;99.90
46730;DHT22;32476;50.002;11.854;2023-02-01T14:37:53;1.40;99.90
46730;DHT22;32476;50.002;11.854;2023-02-01T14:40:26;1.40;99.90
46730;DHT22;32476;50.002;11.854;2023-02-01T14:42:55;1.40;99.90
46730;DHT22;32476;50.002;11.854;2023-02-01T14:50:40;1.40;99.90
46730;DHT22;32476;50.002;11.854;2023-02-01T14:58:45;1.40;99.90
46730;DHT22;32476;50.002;11.854;2023-02-01T15:01:30;1.50;99.90
46730;DHT22;32476;50.002;11.854;2023-02-01T15:04:09;1.50;99.90
46730;DHT22;32476;50.002;11.854;2023-02-01T15:06:57;1.50;99.90
46730;DHT22;32476;50.002;11.854;2023-02-01T15:09:36;1.50;99.90
46730;DHT22;32476;50.002;11.854;2023-02-01T15:14:48;1.50;99.90
46730;DHT22;32476;50.002;11.854;2023-02-01T15:17:31;1.50;99.90
46730;DHT22;32476;50.002;11.854;2023-02-01T15:20:03;1.50;99.90
46730;DHT22;32476;50.002;11.854;2023-02-01T15:22:40;1.50;99.90
46730;DHT22;32476;50.002;11.854;2023-02-01T15:25:22;1.50;99.90
46730;DHT22;32476;50.002;11.854;2023-02-01T15:27:53;1.40;99.90
46730;DHT22;32476;50.002;11.854;2023-02-01T15:30:25;1.50;99.90
46730;DHT22;32476;50.002;11.854;2023-02-01T15:35:45;1.50;99.90
46730;DHT22;32476;50.002;11.854;2023-02-01T15:38:41;1.50;99.90
46730;DHT22;32476;50.002;11.854;2023-02-01T15:41:21;1.50;99.90
46730;DHT22;32476;50.002;11.854;2023-02-01T15:46:41;1.50;99.90
46730;DHT22;32476;50.002;11.854;2023-02-01T15:49:36;1.60;99.90
46730;DHT22;32476;50.002;11.854;2023-02-01T15:52:22;1.60;99.90
46730;DHT22;32476;50.002;11.854;2023-02-01T15:54:58;1.60;99.90
46730;DHT22;32476;50.002;11.854;2023-02-01T15:57:36;1.50;99.90
46730;DHT22;32476;50.002;11.854;2023-02-01T16:00:26;1.50;99.90
46730;DHT22;32476;50.002;11.854;2023-02-01T16:02:57;1.50;99.90
46730;DHT22;32476;50.002;11.854;2023-02-01T16:05:36;1.50;99.90
46730;DHT22;32476;50.002;11.854;2023-02-01T16:10:48;1.50;99.90
46730;DHT22;32476;50.002;11.854;2023-02-01T16:13:18;1.50;99.90
46730;DHT22;32476;50.002;11.854;2023-02-01T16:15:47;1.40;99.90
46730;DHT22;32476;50.002;11.854;2023-02-01T16:18:14;1.40;99.90
46730;DHT22;32476;50.002;11.854;2023-02-01T16:20:42;1.50;99.90
46730;DHT22;32476;50.002;11.854;2023-02-01T16:23:10;1.50;99.90
46730;DHT22;32476;50.002;11.854;2023-02-01T16:25:37;1.50;99.90
46730;DHT22;32476;50.002;11.854;2023-02-01T16:28:03;1.50;99.90
46730;DHT22;32476;50.002;11.854;2023-02-01T16:30:32;1.50;99.90
46730;DHT22;32476;50.002;11.854;2023-02-01T16:33:00;1.50;99.90
46730;DHT22;32476;50.002;11.854;2023-02-01T16:35:35;1.40;99.90
46730;DHT22;32476;50.002;11.854;2023-02-01T16:38:03;1.40;99.90
46730;DHT22;32476;50.002;11.854;2023-02-01T16:40:42;1.40;99.90
46730;DHT22;32476;50.002;11.854;2023-02-01T16:45:46;1.40;99.90
46730;DHT22;32476;50.002;11.854;2023-02-01T16:48:25;1.40;99.90
46730;DHT22;32476;50.002;11.854;2023-02-01T16:50:57;1.40;99.90
46730;DHT22;32476;50.002;11.854;2023-02-01T16:53:28;1.40;99.90
46730;DHT22;32476;50.002;11.854;2023-02-01T16:55:57;1.40;99.90
46730;DHT22;32476;50.002;11.854;2023-02-01T16:58:24;1.40;99.90
46730;DHT22;32476;50.002;11.854;2023-02-01T17:00:52;1.40;99.90
46730;DHT22;32476;50.002;11.854;2023-02-01T17:03:20;1.40;99.90
46730;DHT22;32476;50.002;11.854;2023-02-01T17:05:52;1.50;99.90
46730;DHT22;32476;50.002;11.854;2023-02-01T17:08:29;1.50;99.90
46730;DHT22;32476;50.002;11.854;2023-02-01T17:10:57;1.40;99.90
46730;DHT22;32476;50.002;11.854;2023-02-01T17:13:25;1.40;99.90
46730;DHT22;32476;50.002;11.854;2023-02-01T17:16:02;1.40;99.90
46730;DHT22;32476;50.002;11.854;2023-02-01T17:18:33;1.30;99.90
46730;DHT22;32476;50.002;11.854;2023-02-01T17:21:01;1.40;99.90
46730;DHT22;32476;50.002;11.854;2023-02-01T17:23:29;1.40;99.90
46730;DHT22;32476;50.002;11.854;2023-02-01T17:25:57;1.50;99.90
46730;DHT22;32476;50.002;11.854;2023-02-01T17:28:23;1.50;99.90
46730;DHT22;32476;50.002;11.854;2023-02-01T17:30:50;1.50;99.90
46730;DHT22;32476;50.002;11.854;2023-02-01T17:33:28;1.50;99.90
46730;DHT22;32476;50.002;11.854;2023-02-01T17:35:56;1.40;99.90
46730;DHT22;32476;50.002;11.854;2023-02-01T17:38:24;1.40;99.90
46730;DHT22;32476;50.002;11.854;2023-02-01T17:40:51;1.40;99.90
46730;DHT22;32476;50.002;11.854;2023-02-01T17:43:25;1.40;99.90
46730;DHT22;32476;50.002;11.854;2023-02-01T17:45:55;1.50;99.90
46730;DHT22;32476;50.002;11.854;2023-02-01T17:48:24;1.50;99.90
46730;DHT22;32476;50.002;11.854;2023-02-01T17:50:50;1.40;99.90
46730;DHT22;32476;50.002;11.854;2023-02-01T17:53:27;1.40;99.90
46730;DHT22;32476;50.002;11.854;2023-02-01T17:55:54;1.50;99.90
46730;DHT22;32476;50.002;11.854;2023-02-01T17:58:25;1.50;99.90
46730;DHT22;32476;50.002;11.854;2023-02-01T18:00:52;1.40;99.90
46730;DHT22;32476;50.002;11.854;2023-02-01T18:03:24;1.50;99.90
46730;DHT22;32476;50.002;11.854;2023-02-01T18:05:55;1.50;99.90
46730;DHT22;32476;50.002;11.854;2023-02-01T18:08:27;1.50;99.90
46730;DHT22;32476;50.002;11.854;2023-02-01T18:10:58;1.50;99.90
46730;DHT22;32476;50.002;11.854;2023-02-01T18:13:30;1.50;99.90
46730;DHT22;32476;50.002;11.854;2023-02-01T18:15:58;1.50;99.90
46730;DHT22;32476;50.002;11.854;2023-02-01T18:18:26;1.50;99.90
46730;DHT22;32476;50.002;11.854;2023-02-01T18:20:55;1.50;99.90